Impacts TAF Board
For situational awareness. Not to be used for flight planning purposes.
IDs:

KPUB - Pueblo Mem Arpt, CO, US

Issued at 2051 UTC 08 Aug 2020
Updated at 2148 UTC 08 Aug 2020
Potential Impact None Slight Moderate High
Time2053Z 08/22Z 08/23Z 09/00Z 09/01Z 09/02Z 09/03Z 09/04Z 09/05Z 09/06Z 09/07Z 09/08Z 09/09Z 09/10Z>>
Type OBS PRVL PRVL PRVL PRVL PRVL PRVL PRVL PRVL PRVL PRVL PRVL PRVL PRVL
VIS 10 >6 >6 >6 >6 >6 >6 >6 >6 >6 >6 >6 >6 >6
CIG -- -- -- -- -- -- -- -- -- -- -- -- -- --
Cover CLR FEW FEW FEW FEW FEW SCT SCT SCT SCT SCT SCT SCT SCT
FltCat VFR VFR VFR VFR VFR VFR VFR VFR VFR VFR VFR VFR VFR VFR
WX -- -- -- -- -- -- -- -- -- -- -- -- -- --
WDir 140 150 150 150 150 150 320 320 320 320 320 320 320 320
WSpd 9 15 15 15 8 8 7 7 7 7 7 7 7 7
WGst 19 25 25 25 -- -- -- -- -- -- -- -- -- --
Raw TAF
KPUB 082051Z 0821/0918 15015G25KT P6SM FEW150
  FM090100 15008KT P6SM FEW150
  FM090300 32007KT P6SM SCT150
  FM091400 28006KT P6SM FEW150


Raw METAR
KPUB 082053Z 14009G19KT 10SM CLR 36/M01 A3006 RMK AO2 SLP102 T03611011 56015
KPUB 081953Z 15017G21KT 10SM CLR 36/01 A3007 RMK AO2 SLP106 T03610006
KPUB 081853Z 12010KT 10SM CLR 34/M01 A3008 RMK AO2 PK WND 14026/1817 SLP110 T03441011

METAR Board
Radar Display
Forecast Discussion
For situational awareness. Not to be used for flight planning purposes.